createdAt,value
2022-09-23T00:01:21.064Z,62.60
2022-09-23T00:03:49.622Z,62.70
2022-09-23T00:06:19.358Z,63.00
2022-09-23T00:08:49.351Z,62.90
2022-09-23T00:11:20.318Z,62.90
2022-09-23T00:13:50.092Z,63.10
2022-09-23T00:16:21.830Z,63.50
2022-09-23T00:18:50.722Z,63.60
2022-09-23T00:21:19.530Z,63.00
2022-09-23T00:23:47.278Z,62.80
2022-09-23T00:26:18.842Z,63.40
2022-09-23T00:28:46.919Z,63.30
2022-09-23T00:31:16.819Z,63.20
2022-09-23T00:33:45.922Z,63.00
2022-09-23T00:36:17.175Z,63.40
2022-09-23T00:38:45.845Z,63.60
2022-09-23T00:41:15.130Z,63.50
2022-09-23T00:43:45.052Z,63.50
2022-09-23T00:46:17.417Z,63.70
2022-09-23T00:48:48.843Z,63.60
2022-09-23T00:51:23.287Z,64.10
2022-09-23T00:53:52.429Z,64.20
2022-09-23T00:56:22.070Z,64.70
2022-09-23T00:58:51.591Z,65.30
2022-09-23T01:01:20.534Z,65.80
2022-09-23T01:03:51.157Z,66.00
2022-09-23T01:06:18.893Z,66.30
2022-09-23T01:08:47.622Z,66.60
2022-09-23T01:11:27.144Z,66.90
2022-09-23T01:14:02.609Z,69.00
2022-09-23T01:16:37.403Z,69.70
2022-09-23T01:19:18.558Z,69.40
2022-09-23T01:21:53.890Z,70.80
2022-09-23T01:25:05.036Z,70.50
2022-09-23T01:27:50.587Z,73.30
2022-09-23T01:30:43.986Z,76.10
2022-09-23T01:33:19.403Z,77.10
2022-09-23T01:36:03.695Z,79.60
2022-09-23T01:38:42.902Z,80.50
2022-09-23T01:41:24.533Z,81.70
2022-09-23T01:43:59.564Z,82.90
2022-09-23T01:46:32.261Z,82.90
2022-09-23T01:49:09.111Z,85.10
2022-09-23T01:51:41.318Z,87.30
2022-09-23T01:54:15.842Z,87.00
2022-09-23T01:56:50.003Z,87.30
2022-09-23T01:59:22.611Z,89.40
2022-09-23T02:01:58.040Z,90.60
2022-09-23T02:04:30.405Z,90.80
2022-09-23T02:07:03.552Z,90.80
2022-09-23T02:09:37.121Z,91.50
2022-09-23T02:12:12.509Z,91.90
2022-09-23T02:14:46.489Z,91.70
2022-09-23T02:17:21.867Z,92.30
2022-09-23T02:19:53.670Z,93.40
2022-09-23T02:22:26.753Z,94.00
2022-09-23T02:24:56.669Z,94.00
2022-09-23T02:27:31.179Z,94.30
2022-09-23T02:30:04.557Z,95.00
2022-09-23T02:32:38.449Z,95.00
2022-09-23T02:35:15.468Z,95.20
2022-09-23T02:37:48.532Z,94.90
2022-09-23T02:40:23.741Z,95.40
2022-09-23T02:43:01.696Z,95.70
2022-09-23T02:45:29.579Z,95.20
2022-09-23T02:48:10.991Z,95.40
2022-09-23T02:50:39.203Z,95.80
2022-09-23T02:53:07.379Z,95.80
2022-09-23T02:55:35.087Z,95.90
2022-09-23T02:58:05.352Z,97.00
2022-09-23T03:00:49.987Z,97.50
2022-09-23T03:03:33.476Z,98.60
2022-09-23T03:06:09.347Z,99.60
2022-09-23T03:08:48.298Z,99.90
2022-09-23T03:11:17.456Z,99.90
2022-09-23T03:14:08.128Z,99.90
2022-09-23T03:16:40.625Z,99.90
2022-09-23T03:19:23.847Z,99.90
2022-09-23T03:22:01.824Z,99.90
2022-09-23T03:24:32.066Z,99.90
2022-09-23T03:27:04.166Z,99.90
2022-09-23T03:29:37.242Z,99.90
2022-09-23T03:32:08.006Z,99.90
2022-09-23T03:34:39.198Z,99.90
2022-09-23T03:37:15.296Z,99.90
2022-09-23T03:39:44.105Z,99.90
2022-09-23T03:42:17.783Z,99.90
2022-09-23T03:44:46.770Z,99.90
2022-09-23T03:47:15.416Z,99.90
2022-09-23T03:49:48.208Z,99.90
2022-09-23T03:52:16.328Z,99.90
2022-09-23T03:54:44.137Z,99.90
2022-09-23T03:57:13.434Z,99.90
2022-09-23T03:59:41.343Z,99.90
2022-09-23T04:02:09.429Z,99.90
2022-09-23T04:04:40.048Z,99.90
2022-09-23T04:07:09.666Z,99.90
2022-09-23T04:09:37.965Z,99.90
2022-09-23T04:12:06.198Z,99.90
2022-09-23T04:14:33.983Z,99.90
2022-09-23T04:17:01.777Z,99.90
2022-09-23T04:19:29.494Z,99.90
2022-09-23T04:21:57.163Z,99.90
2022-09-23T04:24:26.324Z,99.90
2022-09-23T04:26:55.012Z,99.90
2022-09-23T04:29:23.524Z,99.90
2022-09-23T04:31:51.716Z,99.90
2022-09-23T04:34:20.336Z,99.90
2022-09-23T04:36:49.216Z,99.90
2022-09-23T04:39:18.091Z,99.90
2022-09-23T04:41:47.379Z,99.90
2022-09-23T04:44:15.635Z,99.90
2022-09-23T04:46:47.426Z,99.90
2022-09-23T04:49:15.939Z,99.90
2022-09-23T04:51:43.994Z,99.90
2022-09-23T04:54:14.194Z,99.90
2022-09-23T04:56:42.168Z,99.90
2022-09-23T04:59:11.302Z,99.90
2022-09-23T05:01:39.221Z,99.90
2022-09-23T05:04:10.464Z,99.90
2022-09-23T05:06:38.221Z,99.90
2022-09-23T05:09:08.121Z,99.90
2022-09-23T05:11:36.206Z,99.90
2022-09-23T05:14:04.289Z,99.90
2022-09-23T05:16:33.338Z,99.90
2022-09-23T05:19:01.120Z,99.90
2022-09-23T05:21:30.121Z,99.90
2022-09-23T05:24:00.689Z,99.90
2022-09-23T05:26:30.445Z,99.90
2022-09-23T05:28:58.619Z,99.90
2022-09-23T05:31:28.229Z,99.90
2022-09-23T05:33:59.373Z,99.90
2022-09-23T05:36:28.232Z,99.90
2022-09-23T05:38:57.410Z,99.90
2022-09-23T05:41:26.686Z,99.90
2022-09-23T05:43:55.951Z,99.90
2022-09-23T05:46:25.203Z,99.90
2022-09-23T05:48:53.169Z,99.90
2022-09-23T05:51:27.582Z,99.90
2022-09-23T05:53:58.971Z,99.90
2022-09-23T05:56:28.217Z,99.90
2022-09-23T05:58:57.868Z,99.90
2022-09-23T06:01:27.603Z,99.90
2022-09-23T06:03:57.487Z,99.90
2022-09-23T06:06:29.263Z,99.90
2022-09-23T06:08:58.486Z,99.90
2022-09-23T06:11:26.862Z,99.90
2022-09-23T06:13:56.398Z,99.90
2022-09-23T06:16:24.162Z,99.90
2022-09-23T06:18:51.855Z,99.90
2022-09-23T06:21:20.054Z,99.90
2022-09-23T06:23:50.508Z,99.90
2022-09-23T06:26:20.256Z,99.90
2022-09-23T06:28:48.234Z,99.90
2022-09-23T06:31:17.773Z,99.90
2022-09-23T06:33:46.791Z,99.90
2022-09-23T06:36:24.634Z,99.90
2022-09-23T06:39:03.673Z,99.90
2022-09-23T06:41:31.406Z,99.60
2022-09-23T06:43:59.352Z,99.20
2022-09-23T06:46:27.938Z,99.80
2022-09-23T06:48:55.691Z,99.70
2022-09-23T06:51:24.029Z,99.30
2022-09-23T06:53:52.401Z,99.10
2022-09-23T06:56:22.004Z,98.70
2022-09-23T06:58:52.002Z,98.10
2022-09-23T07:01:20.269Z,97.00
2022-09-23T07:03:48.675Z,96.60
2022-09-23T07:06:16.979Z,97.10
2022-09-23T07:08:46.886Z,96.40
2022-09-23T07:11:15.807Z,94.70
2022-09-23T07:13:44.853Z,93.20
2022-09-23T07:16:12.851Z,92.20
2022-09-23T07:18:41.049Z,91.10
2022-09-23T07:21:13.056Z,90.80
2022-09-23T07:23:40.901Z,89.70
2022-09-23T07:26:08.780Z,88.30
2022-09-23T07:28:37.241Z,86.60
2022-09-23T07:31:10.569Z,88.60
2022-09-23T07:33:40.111Z,86.70
2022-09-23T07:36:09.993Z,85.60
2022-09-23T07:38:42.840Z,83.60
2022-09-23T07:41:14.832Z,82.40
2022-09-23T07:43:44.089Z,77.60
2022-09-23T07:46:16.127Z,75.80
2022-09-23T07:48:44.952Z,72.70
2022-09-23T07:51:14.677Z,70.20
2022-09-23T07:53:42.408Z,65.70
2022-09-23T07:56:11.380Z,62.80
2022-09-23T07:58:39.067Z,60.70
2022-09-23T08:01:08.912Z,59.10
2022-09-23T08:03:38.798Z,57.30
2022-09-23T08:06:08.211Z,55.20
2022-09-23T08:08:36.031Z,54.10
2022-09-23T08:11:04.517Z,51.90
2022-09-23T08:13:33.154Z,51.00
2022-09-23T08:16:01.189Z,50.20
2022-09-23T08:18:29.159Z,49.50
2022-09-23T08:20:58.262Z,49.30
2022-09-23T08:23:26.006Z,48.60
2022-09-23T08:25:59.880Z,47.20
2022-09-23T08:28:28.283Z,45.60
2022-09-23T08:30:56.503Z,44.70
2022-09-23T08:33:24.745Z,44.40
2022-09-23T08:35:53.512Z,44.00
2022-09-23T08:38:22.667Z,43.50
2022-09-23T08:40:50.968Z,43.40
2022-09-23T08:43:21.832Z,43.50
2022-09-23T08:45:51.020Z,42.70
2022-09-23T08:48:23.184Z,41.60
2022-09-23T08:50:55.540Z,40.60
2022-09-23T08:53:26.723Z,39.70
2022-09-23T08:55:56.452Z,39.70
2022-09-23T08:58:36.054Z,39.70
2022-09-23T09:01:13.964Z,39.20
2022-09-23T09:03:47.304Z,38.00
2022-09-23T09:06:19.571Z,37.60
2022-09-23T09:08:57.827Z,37.80
2022-09-23T09:11:32.512Z,37.60
2022-09-23T09:14:06.547Z,38.00
2022-09-23T09:17:02.685Z,39.00
2022-09-23T09:19:46.538Z,39.70
2022-09-23T09:22:31.910Z,39.30
2022-09-23T09:25:06.896Z,36.80
2022-09-23T09:27:42.837Z,35.00
2022-09-23T09:30:14.449Z,35.40
2022-09-23T09:32:47.266Z,35.90
2022-09-23T09:35:23.087Z,36.70
2022-09-23T09:37:53.621Z,36.80
2022-09-23T09:40:22.822Z,36.30
2022-09-23T09:42:51.404Z,36.20
2022-09-23T09:45:28.765Z,35.40
2022-09-23T09:48:03.650Z,35.90
2022-09-23T09:50:48.968Z,36.10
2022-09-23T09:53:25.373Z,36.60
2022-09-23T09:56:05.000Z,36.60
2022-09-23T09:58:45.246Z,36.00
2022-09-23T10:01:24.584Z,36.00
2022-09-23T10:03:56.901Z,37.60
2022-09-23T10:06:28.563Z,38.50
2022-09-23T10:09:13.549Z,38.00
2022-09-23T10:11:42.840Z,38.20
2022-09-23T10:14:17.433Z,38.30
2022-09-23T10:16:48.616Z,38.70
2022-09-23T10:19:26.697Z,39.20
2022-09-23T10:21:59.588Z,39.60
2022-09-23T10:24:30.865Z,40.50
2022-09-23T10:27:03.127Z,39.00
2022-09-23T10:29:32.617Z,37.60
2022-09-23T10:32:26.821Z,36.80
2022-09-23T10:34:57.948Z,36.50
2022-09-23T10:37:35.165Z,36.90
2022-09-23T10:40:32.561Z,37.90
2022-09-23T10:43:36.700Z,38.60
2022-09-23T10:46:25.906Z,38.70
2022-09-23T10:49:12.091Z,39.20
2022-09-23T10:51:47.461Z,39.00
2022-09-23T10:54:24.896Z,39.70
2022-09-23T10:57:00.782Z,40.80
2022-09-23T10:59:56.115Z,40.90
2022-09-23T11:02:40.611Z,41.30
2022-09-23T11:05:39.936Z,42.00
2022-09-23T11:08:23.514Z,41.80
2022-09-23T11:11:11.342Z,41.10
2022-09-23T11:13:54.695Z,40.50
2022-09-23T11:16:33.311Z,41.70
2022-09-23T11:19:16.331Z,42.30
2022-09-23T11:22:08.154Z,42.20
2022-09-23T11:24:52.312Z,42.40
2022-09-23T11:27:32.860Z,42.40
2022-09-23T11:30:09.048Z,42.10
2022-09-23T11:35:42.557Z,41.30
2022-09-23T11:38:13.888Z,41.30
2022-09-23T11:40:46.221Z,40.10
2022-09-23T11:43:21.576Z,40.90
2022-09-23T11:45:54.875Z,42.00
2022-09-23T11:48:30.910Z,41.90
2022-09-23T11:51:01.395Z,42.10
2022-09-23T11:53:38.789Z,42.70
2022-09-23T11:56:13.211Z,43.10
2022-09-23T11:58:49.456Z,43.70
2022-09-23T12:01:36.926Z,43.50
2022-09-23T12:04:19.689Z,43.40
2022-09-23T12:06:53.854Z,42.40
2022-09-23T12:09:47.341Z,41.40
2022-09-23T12:12:27.140Z,42.20
2022-09-23T12:15:01.449Z,43.40
2022-09-23T12:17:58.942Z,43.40
2022-09-23T12:20:51.353Z,43.50
2022-09-23T12:23:34.360Z,44.00
2022-09-23T12:26:04.635Z,44.40
2022-09-23T12:28:36.243Z,44.40
2022-09-23T12:31:09.468Z,43.80
2022-09-23T12:33:38.601Z,44.10
2022-09-23T12:36:10.113Z,44.10
2022-09-23T12:38:40.378Z,44.00
2022-09-23T12:41:23.330Z,42.90
2022-09-23T12:43:56.140Z,43.10
2022-09-23T12:46:27.289Z,43.10
2022-09-23T12:49:03.526Z,43.30
2022-09-23T12:51:34.357Z,43.50
2022-09-23T12:54:24.119Z,43.90
2022-09-23T12:57:02.955Z,44.00
2022-09-23T12:59:32.960Z,44.80
2022-09-23T13:02:32.764Z,45.10
2022-09-23T13:05:28.219Z,45.30
2022-09-23T13:08:03.271Z,44.90
2022-09-23T13:10:33.215Z,44.80
2022-09-23T13:13:03.167Z,45.50
2022-09-23T13:15:33.825Z,45.60
2022-09-23T13:18:46.784Z,45.80
2022-09-23T13:21:39.188Z,46.30
2022-09-23T13:24:21.163Z,45.50
2022-09-23T13:26:51.980Z,45.50
2022-09-23T13:29:24.752Z,45.20
2022-09-23T13:31:52.987Z,45.40
2022-09-23T13:34:24.316Z,44.80
2022-09-23T13:36:53.477Z,44.80
2022-09-23T13:39:24.979Z,45.40
2022-09-23T13:41:54.656Z,45.10
2022-09-23T13:44:23.555Z,44.70
2022-09-23T13:46:53.927Z,44.90
2022-09-23T13:49:25.300Z,45.60
2022-09-23T13:51:54.092Z,45.90
2022-09-23T13:54:31.947Z,46.40
2022-09-23T13:57:00.564Z,47.00
2022-09-23T13:59:30.058Z,48.00
2022-09-23T14:02:04.898Z,48.20
2022-09-23T14:04:32.704Z,48.40
2022-09-23T14:07:00.714Z,48.70
2022-09-23T14:09:30.827Z,48.20
2022-09-23T14:12:01.332Z,48.20
2022-09-23T14:14:31.200Z,47.60
2022-09-23T14:16:59.783Z,48.00
2022-09-23T14:19:27.917Z,47.60
2022-09-23T14:21:56.666Z,47.20
2022-09-23T14:24:26.908Z,46.90
2022-09-23T14:26:59.542Z,47.40
2022-09-23T14:29:30.108Z,47.40
2022-09-23T14:32:00.649Z,47.20
2022-09-23T14:34:46.566Z,47.80
2022-09-23T14:37:45.656Z,48.00
2022-09-23T14:40:18.693Z,47.40
2022-09-23T14:42:51.974Z,47.30
2022-09-23T14:45:21.920Z,47.00
2022-09-23T14:47:52.265Z,46.80
2022-09-23T14:50:39.207Z,47.40
2022-09-23T14:53:35.363Z,47.60
2022-09-23T14:56:12.947Z,47.90
2022-09-23T14:58:52.397Z,47.80
2022-09-23T15:01:27.486Z,47.80
2022-09-23T15:03:57.133Z,48.50
2022-09-23T15:06:25.812Z,48.80
2022-09-23T15:08:55.545Z,48.50
2022-09-23T15:11:23.697Z,48.40
2022-09-23T15:13:53.945Z,49.10
2022-09-23T15:16:26.868Z,49.60
2022-09-23T15:18:56.408Z,49.80
2022-09-23T15:21:24.857Z,49.80
2022-09-23T15:23:54.910Z,49.50
2022-09-23T15:26:24.047Z,49.20
2022-09-23T15:28:58.305Z,50.00
2022-09-23T15:31:26.652Z,50.30
2022-09-23T15:33:55.853Z,50.70
2022-09-23T15:36:26.371Z,50.50
2022-09-23T15:38:55.923Z,50.70
2022-09-23T15:41:23.999Z,51.00
2022-09-23T15:43:53.200Z,51.10
2022-09-23T15:46:24.577Z,51.60
2022-09-23T15:48:58.926Z,51.60
2022-09-23T15:51:27.932Z,51.80
2022-09-23T15:53:56.237Z,52.00
2022-09-23T15:56:24.933Z,52.20
2022-09-23T15:58:54.088Z,52.40
2022-09-23T16:01:27.757Z,52.70
2022-09-23T16:03:56.188Z,53.40
2022-09-23T16:06:24.496Z,54.20
2022-09-23T16:08:52.323Z,54.40
2022-09-23T16:11:23.981Z,55.00
2022-09-23T16:13:52.134Z,55.40
2022-09-23T16:16:21.751Z,55.80
2022-09-23T16:18:49.998Z,56.10
2022-09-23T16:21:19.649Z,56.50
2022-09-23T16:23:49.864Z,57.30
2022-09-23T16:26:19.512Z,57.40
2022-09-23T16:28:48.819Z,57.60
2022-09-23T16:31:16.964Z,57.80
2022-09-23T16:33:46.857Z,58.30
2022-09-23T16:36:20.914Z,58.50
2022-09-23T16:38:49.090Z,58.50
2022-09-23T16:41:16.922Z,58.90
2022-09-23T16:43:44.608Z,59.10
2022-09-23T16:46:14.478Z,58.80
2022-09-23T16:48:47.052Z,59.00
2022-09-23T16:51:20.435Z,59.30
2022-09-23T16:53:49.034Z,59.50
2022-09-23T16:56:18.042Z,59.90
2022-09-23T16:58:45.985Z,60.30
2022-09-23T17:01:34.014Z,60.70
2022-09-23T17:04:02.293Z,60.90
2022-09-23T17:06:31.543Z,62.30
2022-09-23T17:08:59.437Z,63.10
2022-09-23T17:11:32.179Z,63.00
2022-09-23T17:14:01.835Z,63.80
2022-09-23T17:16:31.649Z,64.30
2022-09-23T17:19:00.077Z,64.80
2022-09-23T17:21:28.728Z,65.90
2022-09-23T17:23:59.554Z,66.90
2022-09-23T17:26:28.436Z,67.80
2022-09-23T17:28:58.655Z,68.10
2022-09-23T17:31:26.601Z,68.70
2022-09-23T17:33:54.902Z,68.80
2022-09-23T17:36:22.819Z,69.20
2022-09-23T17:38:53.229Z,68.60
2022-09-23T17:41:22.492Z,68.00
2022-09-23T17:43:56.475Z,71.50
2022-09-23T17:46:24.206Z,77.60
2022-09-23T17:48:55.144Z,75.60
2022-09-23T17:51:23.975Z,77.80
2022-09-23T17:53:51.869Z,79.20
2022-09-23T17:56:22.575Z,79.80
2022-09-23T17:58:51.188Z,79.30
2022-09-23T18:01:21.745Z,80.70
2022-09-23T18:03:54.123Z,80.60
2022-09-23T18:06:23.647Z,80.90
2022-09-23T18:08:52.320Z,81.70
2022-09-23T18:11:23.504Z,80.30
2022-09-23T18:13:52.739Z,81.10
2022-09-23T18:16:21.823Z,81.00
2022-09-23T18:18:52.888Z,81.30
2022-09-23T18:21:21.098Z,81.50
2022-09-23T18:23:49.222Z,82.20
2022-09-23T18:26:18.107Z,83.40
2022-09-23T18:28:47.969Z,86.50
2022-09-23T18:31:16.351Z,88.60
2022-09-23T18:33:44.152Z,90.80
2022-09-23T18:36:11.921Z,91.10
2022-09-23T18:38:40.574Z,91.30
2022-09-23T18:41:09.263Z,91.00
2022-09-23T18:43:41.398Z,91.80
2022-09-23T18:46:14.620Z,92.50
2022-09-23T18:49:00.265Z,92.80
2022-09-23T18:51:29.380Z,92.20
2022-09-23T18:53:58.475Z,92.70
2022-09-23T18:56:27.793Z,92.90
2022-09-23T18:58:56.843Z,93.70
2022-09-23T19:01:26.494Z,94.20
2022-09-23T19:03:58.472Z,94.40
2022-09-23T19:06:26.999Z,94.80
2022-09-23T19:08:56.053Z,94.30
2022-09-23T19:11:24.341Z,93.70
2022-09-23T19:13:55.585Z,94.00
2022-09-23T19:16:25.909Z,94.30
2022-09-23T19:18:54.528Z,95.10
2022-09-23T19:21:23.702Z,93.20
2022-09-23T19:23:54.215Z,93.10
2022-09-23T19:26:24.596Z,93.40
2022-09-23T19:28:53.664Z,93.20
2022-09-23T19:31:23.896Z,92.90
2022-09-23T19:33:57.604Z,93.10
2022-09-23T19:36:28.539Z,92.80
2022-09-23T19:39:02.950Z,94.00
2022-09-23T19:41:33.204Z,94.70
2022-09-23T19:44:03.377Z,95.20
2022-09-23T19:46:32.318Z,95.30
2022-09-23T19:49:01.920Z,96.60
2022-09-23T19:51:29.905Z,99.40
2022-09-23T19:53:57.979Z,99.90
2022-09-23T19:56:25.731Z,99.90
2022-09-23T19:58:55.565Z,99.90
2022-09-23T20:01:23.483Z,99.90
2022-09-23T20:03:51.433Z,99.90
2022-09-23T20:06:20.999Z,99.90
2022-09-23T20:08:49.748Z,99.90
2022-09-23T20:11:21.791Z,99.80
2022-09-23T20:13:58.276Z,99.90
2022-09-23T20:16:27.850Z,99.90
2022-09-23T20:18:56.468Z,99.90
2022-09-23T20:21:25.488Z,99.90
2022-09-23T20:23:53.355Z,99.90
2022-09-23T20:26:38.468Z,99.90
2022-09-23T20:29:06.225Z,99.90
2022-09-23T20:31:35.296Z,99.90
2022-09-23T20:34:05.778Z,99.90
2022-09-23T20:36:35.248Z,99.90
2022-09-23T20:39:05.634Z,99.90
2022-09-23T20:41:37.133Z,99.90
2022-09-23T20:44:06.861Z,99.20
2022-09-23T20:46:36.070Z,97.70
2022-09-23T20:49:04.723Z,97.80
2022-09-23T20:51:33.760Z,98.00
2022-09-23T20:54:03.400Z,98.00
2022-09-23T20:56:31.600Z,97.30
2022-09-23T20:59:00.832Z,97.50
2022-09-23T21:01:28.860Z,97.00
2022-09-23T21:03:56.712Z,96.50
2022-09-23T21:06:26.094Z,95.90
2022-09-23T21:08:54.881Z,96.30
2022-09-23T21:11:25.491Z,96.70
2022-09-23T21:13:54.553Z,97.00
2022-09-23T21:16:23.928Z,98.70
2022-09-23T21:18:52.497Z,99.90
2022-09-23T21:21:22.106Z,99.90
2022-09-23T21:23:50.641Z,99.90
2022-09-23T21:26:20.021Z,99.90
2022-09-23T21:28:50.492Z,99.90
2022-09-23T21:31:23.847Z,99.60
2022-09-23T21:33:55.581Z,99.20
2022-09-23T21:36:24.616Z,99.90
2022-09-23T21:38:52.808Z,99.90
2022-09-23T21:41:20.912Z,99.90
2022-09-23T21:43:50.126Z,99.90
2022-09-23T21:46:20.670Z,99.90
2022-09-23T21:48:52.989Z,99.90
2022-09-23T21:51:22.941Z,99.90
2022-09-23T21:53:51.927Z,99.90
2022-09-23T21:56:21.424Z,99.90
2022-09-23T21:58:52.018Z,99.90
2022-09-23T22:01:21.691Z,99.90
2022-09-23T22:03:51.999Z,99.90
2022-09-23T22:06:21.861Z,99.90
2022-09-23T22:08:51.262Z,99.90
2022-09-23T22:11:38.695Z,99.90
2022-09-23T22:14:11.575Z,99.90
2022-09-23T22:16:39.516Z,99.90
2022-09-23T22:19:08.049Z,99.90
2022-09-23T22:21:37.971Z,99.90
2022-09-23T22:24:08.418Z,99.90
2022-09-23T22:26:38.267Z,99.90
2022-09-23T22:29:26.913Z,99.90
2022-09-23T22:32:12.656Z,99.90
2022-09-23T22:34:51.681Z,99.90
2022-09-23T22:37:21.602Z,99.90
2022-09-23T22:39:49.306Z,99.90
2022-09-23T22:42:17.031Z,99.90
2022-09-23T22:44:46.444Z,99.90
2022-09-23T22:47:14.556Z,99.90
2022-09-23T22:49:42.817Z,99.90
2022-09-23T22:52:11.272Z,99.90
2022-09-23T22:54:39.437Z,99.90
2022-09-23T22:57:07.709Z,99.90
2022-09-23T22:59:35.758Z,99.90
2022-09-23T23:02:06.446Z,99.90
2022-09-23T23:04:36.418Z,99.90
2022-09-23T23:07:04.497Z,99.90
2022-09-23T23:09:32.181Z,99.90
2022-09-23T23:11:59.916Z,99.90
2022-09-23T23:14:27.835Z,99.90
2022-09-23T23:16:55.613Z,99.90
2022-09-23T23:19:25.838Z,99.90
2022-09-23T23:21:53.599Z,99.90
2022-09-23T23:24:23.632Z,99.90
2022-09-23T23:26:51.799Z,99.90
2022-09-23T23:29:21.392Z,99.90
2022-09-23T23:31:49.695Z,99.90
2022-09-23T23:34:19.115Z,99.90
2022-09-23T23:36:54.378Z,99.90
2022-09-23T23:39:23.366Z,99.90
2022-09-23T23:41:53.207Z,99.90
2022-09-23T23:44:20.980Z,99.90
2022-09-23T23:46:49.033Z,99.90
2022-09-23T23:49:16.904Z,99.90
2022-09-23T23:51:44.696Z,99.90
2022-09-23T23:54:14.994Z,99.90
2022-09-23T23:56:42.690Z,99.90
2022-09-23T23:59:10.583Z,99.90
